Time;durP1;ratioP1;P1;durP2;ratioP2;P2;SDS_P1;SDS_P2;PMS_P1;PMS_P2;Temp;Humidity;BMP_temperature;BMP_pressure;BME280_temperature;BME280_humidity;BME280_pressure;Samples;Min_cycle;Max_cycle;Signal;HPM_P1;HPM_P2
2023/04/17 00:01:40;;;;;;;10.88;4.45;;;;;;;12.28;78.05;97829.66;4455275;32;20080;-81
2023/04/17 00:04:11;;;;;;;10.55;4.45;;;;;;;12.97;75.18;97821.59;4456692;32;20537;-81
2023/04/17 00:06:42;;;;;;;10.43;4.72;;;;;;;12.85;75.71;97826.59;4456708;32;20506;-81
2023/04/17 00:09:10;;;;;;;12.40;4.82;;;;;;;12.66;75.65;97824.19;4456393;32;20173;-81
2023/04/17 00:11:37;;;;;;;10.27;4.80;;;;;;;12.74;75.89;97814.22;4456818;32;20081;-82
2023/04/17 00:14:04;;;;;;;11.55;5.00;;;;;;;12.80;74.51;97821.66;4456517;32;20089;-81
2023/04/17 00:16:31;;;;;;;8.57;4.05;;;;;;;12.84;74.57;97820.56;4455121;32;20109;-81
2023/04/17 00:18:59;;;;;;;11.70;4.82;;;;;;;12.19;77.54;97814.63;4455469;32;20108;-81
2023/04/17 00:21:28;;;;;;;10.82;5.15;;;;;;;12.35;78.90;97812.91;4456633;32;20102;-81
2023/04/17 00:23:55;;;;;;;11.38;4.87;;;;;;;12.01;81.12;97811.25;4456162;32;20108;-81
2023/04/17 00:26:23;;;;;;;11.63;5.07;;;;;;;11.62;82.29;97800.34;4456564;32;20104;-81
2023/04/17 00:28:50;;;;;;;12.20;5.68;;;;;;;12.25;79.96;97806.56;4456646;32;20136;-81
2023/04/17 00:31:17;;;;;;;11.65;5.22;;;;;;;12.01;80.56;97810.41;4456192;32;20580;-81
2023/04/17 00:33:45;;;;;;;11.68;5.32;;;;;;;12.12;80.45;97805.50;4456471;32;20112;-81
2023/04/17 00:36:14;;;;;;;11.70;5.28;;;;;;;11.91;82.01;97811.78;4456312;32;20081;-81
2023/04/17 00:38:41;;;;;;;11.30;5.05;;;;;;;11.73;82.02;97800.66;4456109;32;20453;-81
2023/04/17 00:41:08;;;;;;;12.13;5.80;;;;;;;11.93;82.30;97805.66;4456459;32;20122;-81
2023/04/17 00:43:35;;;;;;;11.02;5.25;;;;;;;12.40;80.29;97795.38;4456029;32;20210;-81
2023/04/17 00:46:03;;;;;;;11.65;5.50;;;;;;;11.41;84.63;97790.19;4456468;32;20085;-81
2023/04/17 00:48:32;;;;;;;12.57;5.55;;;;;;;11.57;84.46;97778.16;4456499;32;20745;-81
2023/04/17 00:51:02;;;;;;;10.48;5.15;;;;;;;11.34;85.38;97782.81;4456053;32;20104;-81
2023/04/17 00:53:32;;;;;;;11.48;5.62;;;;;;;11.83;83.37;97779.44;4456445;32;20096;-81
2023/04/17 00:56:00;;;;;;;12.70;6.18;;;;;;;12.07;82.30;97785.06;4456479;32;20097;-81
2023/04/17 00:58:27;;;;;;;11.50;5.18;;;;;;;12.49;79.29;97781.09;4455986;32;20444;-81
2023/04/17 01:00:54;;;;;;;11.18;5.22;;;;;;;11.94;82.26;97775.47;4456442;32;20069;-81
2023/04/17 01:03:21;;;;;;;12.68;5.85;;;;;;;11.84;83.04;97777.69;4456358;32;20099;-81
2023/04/17 01:05:50;;;;;;;12.02;5.97;;;;;;;12.30;80.24;97768.31;4455902;32;20089;-81
2023/04/17 01:08:18;;;;;;;11.95;5.75;;;;;;;11.99;82.56;97773.47;4455061;32;20085;-81
2023/04/17 01:10:45;;;;;;;11.15;5.28;;;;;;;11.49;84.60;97764.81;4456457;32;20145;-81
2023/04/17 01:13:12;;;;;;;10.80;5.47;;;;;;;11.53;85.21;97758.56;4455687;32;20101;-81
2023/04/17 01:15:39;;;;;;;12.60;5.72;;;;;;;11.92;82.09;97764.38;4456323;32;20114;-81
2023/04/17 01:18:06;;;;;;;12.20;6.05;;;;;;;12.28;80.62;97764.16;4456020;32;20089;-81
2023/04/17 01:20:33;;;;;;;11.77;5.53;;;;;;;12.01;81.75;97761.28;4456279;32;20144;-81
2023/04/17 01:23:00;;;;;;;13.38;5.68;;;;;;;12.20;80.94;97767.16;4456160;32;20116;-81
2023/04/17 01:25:27;;;;;;;11.68;5.30;;;;;;;12.11;81.90;97768.47;4455951;32;20085;-81
2023/04/17 01:27:55;;;;;;;12.13;5.65;;;;;;;11.84;83.27;97765.59;4456179;32;20149;-81
2023/04/17 01:30:23;;;;;;;11.45;5.30;;;;;;;12.19;81.13;97768.06;4456181;32;20077;-81
2023/04/17 01:32:53;;;;;;;11.18;5.40;;;;;;;12.11;81.77;97762.47;4455763;32;20173;-81
2023/04/17 01:35:20;;;;;;;13.20;5.78;;;;;;;11.98;82.09;97766.63;4456174;32;20111;-81
2023/04/17 01:37:47;;;;;;;12.52;5.55;;;;;;;12.04;81.74;97753.37;4455982;32;20142;-81
2023/04/17 01:40:14;;;;;;;11.12;5.12;;;;;;;11.95;83.00;97764.22;4455825;32;20420;-81
2023/04/17 01:42:41;;;;;;;10.77;5.68;;;;;;;11.97;81.98;97752.84;4456008;32;20093;-81
2023/04/17 01:45:08;;;;;;;11.50;5.78;;;;;;;12.11;81.37;97752.94;4456103;32;20496;-81
2023/04/17 01:47:35;;;;;;;12.18;5.55;;;;;;;11.80;82.37;97760.66;4455703;32;20150;-81
2023/04/17 01:50:03;;;;;;;12.13;5.55;;;;;;;11.59;83.58;97752.25;4454977;32;20085;-81
2023/04/17 01:52:30;;;;;;;12.10;6.10;;;;;;;11.74;83.59;97755.78;4455894;32;20440;-81
2023/04/17 01:54:57;;;;;;;13.48;5.87;;;;;;;11.60;83.16;97756.50;4455711;32;20158;-81
2023/04/17 01:57:23;;;;;;;12.98;5.85;;;;;;;12.55;78.68;97760.06;4455853;32;20128;-81
2023/04/17 01:59:50;;;;;;;11.88;5.43;;;;;;;12.59;78.54;97763.31;4455782;32;20077;-81
2023/04/17 02:02:17;;;;;;;13.27;6.07;;;;;;;12.35;78.53;97768.94;4455615;32;20497;-81
2023/04/17 02:04:44;;;;;;;11.32;5.25;;;;;;;12.78;77.47;97756.22;4456013;32;20112;-81
2023/04/17 02:07:11;;;;;;;14.48;5.68;;;;;;;12.83;76.08;97763.69;4455694;32;20086;-81
2023/04/17 02:09:38;;;;;;;11.52;5.50;;;;;;;13.34;74.62;97778.06;4455803;32;20419;-81
2023/04/17 02:12:05;;;;;;;11.02;5.32;;;;;;;13.31;73.63;97776.47;4455492;32;20101;-82
2023/04/17 02:14:32;;;;;;;11.50;5.57;;;;;;;12.93;75.27;97778.62;4455531;32;20157;-82
2023/04/17 02:17:00;;;;;;;10.93;4.97;;;;;;;13.28;73.13;97773.22;4455684;32;20485;-81
2023/04/17 02:19:27;;;;;;;9.65;4.90;;;;;;;13.60;72.15;97768.75;4455582;32;20564;-81
2023/04/17 02:21:54;;;;;;;10.52;5.07;;;;;;;13.90;70.69;97771.25;4455226;32;20101;-81
2023/04/17 02:24:21;;;;;;;12.30;5.32;;;;;;;12.31;78.83;97776.91;4455551;32;20149;-81
2023/04/17 02:26:48;;;;;;;10.80;5.22;;;;;;;13.54;73.74;97771.72;4455435;32;20099;-81
2023/04/17 02:29:15;;;;;;;12.68;5.57;;;;;;;13.15;75.64;97767.06;4455155;32;20073;-81
2023/04/17 02:31:42;;;;;;;11.40;5.40;;;;;;;12.58;78.36;97765.06;4455641;32;20346;-81
2023/04/17 02:34:09;;;;;;;13.10;5.70;;;;;;;13.07;76.13;97766.66;4455248;32;20168;-81
2023/04/17 02:36:36;;;;;;;10.85;5.15;;;;;;;12.12;80.97;97767.56;4454987;32;20089;-81
2023/04/17 02:39:03;;;;;;;11.73;5.03;;;;;;;12.05;81.79;97775.72;4455162;32;20492;-81
2023/04/17 02:41:30;;;;;;;11.60;5.43;;;;;;;11.48;85.40;97767.44;4455265;32;20380;-81
2023/04/17 02:43:59;;;;;;;10.43;4.82;;;;;;;11.77;84.49;97779.72;4454996;32;20499;-81
2023/04/17 02:46:26;;;;;;;11.25;4.78;;;;;;;12.21;82.25;97770.56;4455089;32;20077;-81
2023/04/17 02:48:53;;;;;;;12.60;5.37;;;;;;;11.44;85.99;97769.38;4455028;32;20428;-81
2023/04/17 02:51:20;;;;;;;11.98;4.95;;;;;;;11.65;85.58;97772.59;4455049;32;20151;-81
2023/04/17 02:53:48;;;;;;;10.65;5.03;;;;;;;12.80;79.54;97761.28;4455114;32;20105;-81
2023/04/17 02:56:14;;;;;;;11.65;5.75;;;;;;;13.01;79.02;97750.56;4455101;32;20089;-81
2023/04/17 02:58:43;;;;;;;10.50;4.95;;;;;;;13.52;75.01;97748.47;4454705;32;20088;-81
2023/04/17 03:01:10;;;;;;;10.38;4.85;;;;;;;13.17;75.47;97750.50;4455411;32;20102;-81
2023/04/17 03:03:40;;;;;;;9.98;4.90;;;;;;;12.76;78.93;97745.09;4456850;32;20111;-81
2023/04/17 03:06:08;;;;;;;10.73;4.72;;;;;;;12.72;77.63;97744.44;4457202;32;20089;-81
2023/04/17 03:08:37;;;;;;;10.77;5.30;;;;;;;12.28;81.46;97753.81;4457083;32;20081;-81
2023/04/17 03:11:05;;;;;;;12.48;5.75;;;;;;;12.21;81.83;97763.62;4456854;32;20097;-81
2023/04/17 03:13:35;;;;;;;10.63;4.70;;;;;;;11.98;83.29;97772.62;4456840;32;20154;-81
2023/04/17 03:16:03;;;;;;;12.10;5.10;;;;;;;12.55;79.92;97767.84;4457272;32;20103;-81
2023/04/17 03:18:31;;;;;;;10.13;4.70;;;;;;;12.14;81.52;97768.31;4456576;32;20160;-81
2023/04/17 03:20:58;;;;;;;10.88;5.03;;;;;;;12.15;82.14;97770.00;4457168;32;20157;-81
2023/04/17 03:23:24;;;;;;;9.80;4.72;;;;;;;13.07;77.57;97753.69;4457037;32;20440;-81
2023/04/17 03:25:51;;;;;;;10.40;4.85;;;;;;;12.73;79.00;97750.44;4456737;32;20569;-81
2023/04/17 03:28:20;;;;;;;10.75;5.22;;;;;;;13.92;73.35;97755.59;4456864;32;20084;-81
2023/04/17 03:30:48;;;;;;;10.65;5.12;;;;;;;13.94;73.59;97757.19;4457125;32;20643;-81
2023/04/17 03:33:15;;;;;;;10.07;4.80;;;;;;;14.91;67.60;97752.00;4456592;32;20149;-81
2023/04/17 03:35:43;;;;;;;11.38;4.90;;;;;;;13.53;72.31;97752.72;4455760;32;20093;-81
2023/04/17 03:38:10;;;;;;;11.50;5.03;;;;;;;14.35;70.05;97756.38;4456803;32;20080;-81
2023/04/17 03:40:37;;;;;;;9.88;4.70;;;;;;;13.23;73.73;97745.00;4456733;32;20108;-81
2023/04/17 03:43:04;;;;;;;10.15;5.05;;;;;;;12.80;77.08;97751.78;4456870;32;20178;-81
2023/04/17 03:45:31;;;;;;;10.48;4.80;;;;;;;12.36;78.75;97760.25;4456737;32;20081;-81
2023/04/17 03:47:58;;;;;;;8.60;4.18;;;;;;;11.94;81.72;97771.12;4456773;32;20423;-81
2023/04/17 03:50:25;;;;;;;11.00;5.12;;;;;;;11.50;84.70;97773.41;4457017;32;20394;-81
2023/04/17 03:52:52;;;;;;;10.85;4.87;;;;;;;11.30;86.13;97774.41;4456532;32;20089;-81
2023/04/17 03:55:19;;;;;;;11.00;5.00;;;;;;;11.74;83.64;97776.47;4456867;32;20081;-81
2023/04/17 03:57:47;;;;;;;11.82;5.45;;;;;;;10.67;89.23;97779.19;4456883;32;20081;-81
2023/04/17 04:00:15;;;;;;;11.75;4.82;;;;;;;10.82;89.43;97780.19;4456393;32;20091;-81
2023/04/17 04:02:42;;;;;;;11.48;5.18;;;;;;;10.72;90.44;97772.88;4456740;32;20109;-81
2023/04/17 04:05:09;;;;;;;11.25;5.43;;;;;;;11.82;84.06;97782.13;4456770;32;20084;-81
2023/04/17 04:07:36;;;;;;;11.00;5.03;;;;;;;12.13;82.81;97777.00;4456396;32;20104;-81
2023/04/17 04:10:03;;;;;;;11.77;5.57;;;;;;;12.21;81.94;97779.16;4456823;32;20492;-81
2023/04/17 04:12:30;;;;;;;11.98;5.70;;;;;;;12.15;82.17;97790.69;4456196;32;20097;-81
2023/04/17 04:14:57;;;;;;;11.48;6.00;;;;;;;12.07;82.66;97797.16;4456067;32;20448;-81
2023/04/17 04:17:24;;;;;;;11.18;5.30;;;;;;;11.77;84.54;97809.91;4456731;32;20153;-81
2023/04/17 04:19:51;;;;;;;12.05;5.43;;;;;;;12.08;83.76;97810.00;4456548;32;20101;-81
2023/04/17 04:22:20;;;;;;;11.00;5.37;;;;;;;12.43;81.88;97815.06;4456329;32;20112;-81
2023/04/17 04:24:47;;;;;;;11.65;5.22;;;;;;;12.65;80.62;97810.41;4456516;32;20500;-81
2023/04/17 04:27:16;;;;;;;11.30;5.60;;;;;;;12.94;78.62;97806.19;4456574;32;20085;-81
2023/04/17 04:29:47;;;;;;;11.98;5.65;;;;;;;12.38;80.42;97810.16;4456193;32;20519;-81
2023/04/17 04:32:15;;;;;;;11.50;5.32;;;;;;;13.11;76.88;97802.66;4456629;32;20111;-81
2023/04/17 04:34:43;;;;;;;12.50;5.70;;;;;;;12.60;78.09;97815.00;4456319;32;20089;-81
2023/04/17 04:37:14;;;;;;;13.50;5.18;;;;;;;12.31;79.57;97805.37;4456560;32;20146;-81
2023/04/17 04:39:42;;;;;;;11.43;5.07;;;;;;;12.96;76.94;97806.09;4456475;32;20456;-81
2023/04/17 04:42:09;;;;;;;11.65;5.20;;;;;;;12.33;80.51;97813.87;4456345;32;20124;-81
2023/04/17 04:44:36;;;;;;;12.02;5.15;;;;;;;12.49;78.32;97811.31;4456472;32;20085;-81
2023/04/17 04:47:03;;;;;;;10.98;5.10;;;;;;;12.51;78.96;97815.50;4456457;32;20077;-81
2023/04/17 04:49:30;;;;;;;10.82;5.43;;;;;;;12.09;80.58;97822.03;4456015;32;20093;-81
2023/04/17 04:51:57;;;;;;;12.23;6.05;;;;;;;12.64;79.14;97819.06;4456564;32;20419;-81
2023/04/17 04:54:24;;;;;;;10.70;5.20;;;;;;;12.57;79.35;97822.94;4456408;32;20161;-81
2023/04/17 04:56:51;;;;;;;11.35;5.22;;;;;;;13.56;74.25;97832.91;4456162;32;20153;-81
2023/04/17 04:59:18;;;;;;;11.45;5.68;;;;;;;13.90;71.74;97830.91;4456254;32;20115;-81
2023/04/17 05:01:45;;;;;;;12.85;5.28;;;;;;;13.88;70.16;97825.81;4456506;32;20093;-81
2023/04/17 05:04:12;;;;;;;11.77;5.40;;;;;;;14.10;69.66;97830.56;4456008;32;20120;-81
2023/04/17 05:06:39;;;;;;;11.15;5.50;;;;;;;14.02;70.50;97830.19;4456312;32;20477;-81
2023/04/17 05:09:06;;;;;;;11.80;5.55;;;;;;;14.62;67.71;97835.19;4456304;32;20124;-81
2023/04/17 05:11:33;;;;;;;11.52;5.62;;;;;;;15.47;64.28;97836.63;4456040;32;20151;-82
2023/04/17 05:14:00;;;;;;;10.82;5.18;;;;;;;16.15;62.01;97841.59;4455750;32;20081;-82
2023/04/17 05:16:27;;;;;;;11.82;5.72;;;;;;;16.18;61.10;97837.97;4455162;32;20076;-81
2023/04/17 05:18:54;;;;;;;14.85;5.90;;;;;;;16.39;60.06;97830.47;4455921;32;20166;-81
2023/04/17 05:21:21;;;;;;;11.88;5.80;;;;;;;16.86;59.03;97821.06;4456401;32;20162;-81
2023/04/17 05:23:48;;;;;;;10.35;5.05;;;;;;;16.43;60.23;97832.72;4455864;32;20168;-81
2023/04/17 05:26:15;;;;;;;10.43;5.43;;;;;;;15.14;66.58;97812.84;4456210;32;20089;-81
2023/04/17 05:28:43;;;;;;;10.77;5.70;;;;;;;14.55;69.49;97820.91;4456022;32;20439;-81
2023/04/17 05:31:10;;;;;;;10.32;5.15;;;;;;;15.44;65.04;97820.41;4455948;32;20112;-81
2023/04/17 05:33:37;;;;;;;9.88;4.93;;;;;;;14.98;68.20;97820.78;4456132;32;20093;-81
2023/04/17 05:36:05;;;;;;;11.32;5.35;;;;;;;14.68;70.20;97827.03;4456194;32;20107;-81
2023/04/17 05:38:32;;;;;;;11.30;5.45;;;;;;;14.71;69.81;97832.00;4455623;32;20560;-81
2023/04/17 05:41:00;;;;;;;11.23;5.32;;;;;;;14.69;69.17;97825.25;4456256;32;20333;-81
2023/04/17 05:43:27;;;;;;;11.32;5.43;;;;;;;14.97;67.46;97824.31;4456016;32;20154;-81
2023/04/17 05:45:54;;;;;;;12.27;5.75;;;;;;;15.04;66.93;97823.00;4455691;32;20084;-81
2023/04/17 05:48:21;;;;;;;10.48;5.65;;;;;;;15.81;64.56;97821.41;4455707;32;20115;-81
2023/04/17 05:50:48;;;;;;;10.30;5.05;;;;;;;16.03;64.02;97831.19;4447615;32;271055;-82
2023/04/17 05:53:15;;;;;;;11.32;5.45;;;;;;;14.98;65.73;97828.59;4455675;32;20088;-85
2023/04/17 05:55:42;;;;;;;11.52;5.45;;;;;;;15.71;64.25;97826.41;4455948;32;20431;-83
2023/04/17 05:58:09;;;;;;;12.40;6.15;;;;;;;14.84;66.18;97824.28;4455764;32;20101;-85
2023/04/17 06:00:50;;;;;;;10.05;4.70;;;;;;;16.43;60.12;97831.91;4455655;32;20533;-86
2023/04/17 06:03:17;;;;;;;10.20;4.78;;;;;;;15.97;59.89;97827.28;4459963;32;20085;-83
2023/04/17 06:05:45;;;;;;;11.00;5.12;;;;;;;16.14;59.92;97823.50;4462484;32;20084;-82
2023/04/17 06:08:13;;;;;;;10.55;4.78;;;;;;;16.59;58.57;97831.63;4457505;32;20097;-82
2023/04/17 06:10:39;;;;;;;9.63;4.32;;;;;;;14.75;64.08;97830.03;4457783;32;20778;-81
2023/04/17 06:13:07;;;;;;;9.00;4.35;;;;;;;16.02;59.10;97834.75;4459544;32;20092;-84
2023/04/17 06:15:33;;;;;;;10.48;5.28;;;;;;;15.82;60.73;97823.91;4460599;32;20103;-84
2023/04/17 06:18:02;;;;;;;10.20;5.10;;;;;;;16.59;58.03;97840.31;4462016;32;20093;-84
2023/04/17 06:20:29;;;;;;;9.63;4.62;;;;;;;16.48;58.02;97850.63;4462792;32;20080;-84
2023/04/17 06:22:56;;;;;;;10.50;4.90;;;;;;;17.33;55.20;97851.50;4462788;32;20061;-85
2023/04/17 06:25:23;;;;;;;10.38;5.18;;;;;;;16.98;57.94;97849.69;4459548;32;20151;-85
2023/04/17 06:27:53;;;;;;;10.95;5.30;;;;;;;17.23;58.41;97853.16;4456491;32;20097;-85
2023/04/17 06:30:20;;;;;;;11.23;5.00;;;;;;;17.50;56.19;97858.94;4458319;32;20102;-85
2023/04/17 06:32:47;;;;;;;10.75;5.22;;;;;;;16.36;60.54;97854.09;4455509;32;20097;-83
2023/04/17 06:35:14;;;;;;;10.43;4.97;;;;;;;15.97;63.47;97861.09;4455386;32;20076;-83
2023/04/17 06:37:41;;;;;;;11.63;5.05;;;;;;;16.34;61.46;97862.00;4456865;32;20158;-83
2023/04/17 06:40:08;;;;;;;9.38;5.05;;;;;;;16.24;62.05;97865.34;4457553;32;20150;-84
2023/04/17 06:42:35;;;;;;;9.52;4.28;;;;;;;16.46;61.36;97861.16;4457052;32;20384;-84
2023/04/17 06:45:02;;;;;;;11.12;4.57;;;;;;;15.43;63.15;97865.56;4459924;32;20061;-85
2023/04/17 06:47:30;;;;;;;9.82;4.85;;;;;;;15.96;62.55;97863.81;4462479;32;20360;-82
2023/04/17 06:49:58;;;;;;;12.20;5.43;;;;;;;15.42;65.58;97869.06;4461243;32;20093;-83
2023/04/17 06:52:25;;;;;;;10.82;4.82;;;;;;;15.40;66.95;97857.94;4458551;32;20691;-85
2023/04/17 06:54:53;;;;;;;9.60;4.55;;;;;;;15.12;68.83;97858.91;4460101;32;20423;-84
2023/04/17 06:57:21;;;;;;;11.35;4.60;;;;;;;14.88;68.00;97861.28;4458167;32;20462;-84
2023/04/17 06:59:49;;;;;;;12.23;5.20;;;;;;;14.86;68.94;97866.56;4457417;32;20158;-84
2023/04/17 07:02:16;;;;;;;9.35;4.30;;;;;;;15.68;67.40;97860.44;4462557;32;20088;-84
2023/04/17 07:04:43;;;;;;;12.73;5.10;;;;;;;15.83;64.57;97859.41;4457658;32;20421;-84
2023/04/17 07:07:10;;;;;;;10.20;4.20;;;;;;;15.60;64.28;97857.50;4457009;32;20157;-84
2023/04/17 07:09:37;;;;;;;9.32;4.18;;;;;;;16.38;62.77;97858.28;4458565;32;20154;-82
2023/04/17 07:12:04;;;;;;;11.15;4.70;;;;;;;16.06;62.97;97854.44;4457734;32;20142;-83
2023/04/17 07:14:32;;;;;;;8.93;4.05;;;;;;;16.47;60.09;97864.59;4456885;32;20540;-84
2023/04/17 07:16:59;;;;;;;9.02;4.12;;;;;;;15.55;64.13;97856.94;4456752;32;20081;-84
2023/04/17 07:19:26;;;;;;;7.95;3.85;;;;;;;16.08;61.23;97849.97;4456992;32;20101;-84
2023/04/17 07:21:53;;;;;;;9.60;4.15;;;;;;;15.46;63.84;97858.38;4457746;32;20080;-84
2023/04/17 07:24:20;;;;;;;10.45;3.67;;;;;;;16.05;63.06;97863.16;4456653;32;20138;-85
2023/04/17 07:26:48;;;;;;;8.95;4.30;;;;;;;16.01;61.67;97852.13;4457198;32;20104;-85
2023/04/17 07:29:15;;;;;;;12.10;4.47;;;;;;;15.93;61.77;97854.41;4456612;32;20125;-84
2023/04/17 07:31:42;;;;;;;9.82;4.35;;;;;;;15.98;61.45;97864.53;4456666;32;20141;-84
2023/04/17 07:34:09;;;;;;;12.23;4.22;;;;;;;15.08;64.54;97866.03;4455870;32;20099;-83
2023/04/17 07:36:36;;;;;;;10.07;4.30;;;;;;;14.59;69.61;97860.50;4457126;32;20093;-84
2023/04/17 07:39:05;;;;;;;8.50;3.70;;;;;;;15.13;66.06;97864.00;4456364;32;20101;-84
2023/04/17 07:41:32;;;;;;;10.02;4.20;;;;;;;15.31;64.23;97873.22;4456776;32;20600;-83
2023/04/17 07:44:02;;;;;;;8.88;4.03;;;;;;;15.44;63.92;97872.41;4456656;32;20080;-83
2023/04/17 07:46:29;;;;;;;11.88;4.75;;;;;;;15.71;63.27;97867.19;4456765;32;20101;-83
2023/04/17 07:48:56;;;;;;;10.60;4.68;;;;;;;15.71;63.43;97869.78;4455609;32;20092;-83
2023/04/17 07:51:22;;;;;;;11.40;4.55;;;;;;;15.93;63.68;97871.78;4456522;32;20093;-83
2023/04/17 07:53:49;;;;;;;9.52;4.57;;;;;;;16.63;61.11;97878.22;4456668;32;20154;-84
2023/04/17 07:56:16;;;;;;;10.10;4.32;;;;;;;16.46;61.84;97874.16;4456703;32;20722;-83
2023/04/17 07:58:45;;;;;;;9.32;4.37;;;;;;;15.50;66.42;97867.63;4458240;32;20100;-83
2023/04/17 08:01:12;;;;;;;9.85;4.35;;;;;;;15.97;63.85;97881.91;4457409;32;20138;-83
2023/04/17 08:03:40;;;;;;;9.65;4.20;;;;;;;15.95;63.61;97888.13;4458948;32;20103;-83
2023/04/17 08:06:07;;;;;;;10.02;4.45;;;;;;;16.31;63.60;97885.66;4456145;32;20105;-83
2023/04/17 08:08:35;;;;;;;8.68;4.03;;;;;;;17.02;59.10;97886.81;4456381;32;20144;-82
2023/04/17 08:11:02;;;;;;;9.27;4.30;;;;;;;16.41;59.80;97889.28;4459548;32;20089;-82
2023/04/17 08:13:32;;;;;;;9.85;3.80;;;;;;;14.99;66.98;97880.47;4455949;32;20512;-82
2023/04/17 08:16:00;;;;;;;8.93;4.10;;;;;;;15.72;64.54;97887.06;4457263;32;20093;-84
2023/04/17 08:18:28;;;;;;;9.77;4.47;;;;;;;16.11;62.85;97897.41;4456722;32;20101;-83
2023/04/17 08:20:57;;;;;;;9.00;4.05;;;;;;;16.30;61.63;97894.41;4460777;32;20085;-83
2023/04/17 08:23:24;;;;;;;10.57;4.30;;;;;;;15.83;62.77;97893.22;4458207;32;20156;-83
2023/04/17 08:25:51;;;;;;;8.43;3.78;;;;;;;16.53;60.98;97899.81;4458111;32;20428;-83
2023/04/17 08:28:18;;;;;;;9.45;4.28;;;;;;;16.06;63.13;97894.31;4457625;32;20072;-84
2023/04/17 08:30:45;;;;;;;9.02;4.00;;;;;;;15.90;61.54;97894.47;4459534;32;20107;-83
2023/04/17 08:33:12;;;;;;;9.45;4.10;;;;;;;15.51;64.89;97889.25;4459580;32;20081;-82
2023/04/17 08:35:39;;;;;;;10.38;4.32;;;;;;;15.85;61.74;97900.94;4461507;32;20093;-83
2023/04/17 08:38:09;;;;;;;8.85;4.30;;;;;;;15.31;64.29;97891.41;4462334;32;20464;-84
2023/04/17 08:40:39;;;;;;;9.65;4.22;;;;;;;15.32;64.28;97887.06;4459082;32;20164;-84
2023/04/17 08:43:11;;;;;;;9.00;3.95;;;;;;;15.45;64.35;97898.31;4457174;32;20150;-85
2023/04/17 08:45:39;;;;;;;12.35;4.30;;;;;;;15.52;63.79;97893.53;4457119;32;20101;-84
2023/04/17 08:48:06;;;;;;;11.27;4.80;;;;;;;15.28;66.44;97896.78;4457926;32;20182;-84
2023/04/17 08:50:33;;;;;;;10.70;4.10;;;;;;;15.44;65.86;97894.06;4457024;32;20153;-84
2023/04/17 08:53:00;;;;;;;9.43;4.28;;;;;;;15.22;65.70;97891.16;4457214;32;20077;-84
2023/04/17 08:55:31;;;;;;;9.90;4.50;;;;;;;15.12;65.67;97892.69;4455980;32;20112;-84
2023/04/17 08:57:59;;;;;;;10.15;4.47;;;;;;;15.60;64.38;97896.50;4456758;32;20101;-84
2023/04/17 09:00:28;;;;;;;12.02;4.20;;;;;;;14.99;66.07;97890.88;4455882;32;20104;-85
2023/04/17 09:02:56;;;;;;;9.70;4.28;;;;;;;15.66;66.62;97893.50;4455420;32;20477;-85
2023/04/17 09:05:25;;;;;;;8.68;3.97;;;;;;;15.25;64.70;97880.56;4455700;32;20162;-85
2023/04/17 09:08:16;;;;;;;9.48;4.10;;;;;;;16.63;62.89;97896.44;4455702;32;20101;-84
2023/04/17 09:10:51;;;;;;;8.27;4.03;;;;;;;16.69;59.74;97884.78;4455722;32;20161;-85
2023/04/17 09:13:23;;;;;;;10.45;4.07;;;;;;;17.18;58.68;97889.13;4455369;32;20455;-85
2023/04/17 09:16:14;;;;;;;9.70;4.47;;;;;;;16.58;59.71;97887.28;4455366;32;20090;-85
2023/04/17 09:18:42;;;;;;;10.45;3.35;;;;;;;16.87;56.36;97880.91;4451759;32;20097;-84
2023/04/17 09:21:09;;;;;;;9.73;3.95;;;;;;;19.02;51.26;97882.97;4455765;32;20085;-84
2023/04/17 09:23:49;;;;;;;12.10;4.15;;;;;;;18.78;51.41;97883.13;4455211;32;20073;-84
2023/04/17 09:26:30;;;;;;;6.43;2.95;;;;;;;18.97;52.07;97876.47;4455724;32;20428;-84
2023/04/17 09:29:10;;;;;;;8.45;3.53;;;;;;;18.32;50.64;97869.34;4455553;32;20154;-84
2023/04/17 09:31:40;;;;;;;12.85;5.05;;;;;;;18.54;51.65;97884.19;4454337;32;20111;-84
2023/04/17 09:34:12;;;;;;;8.40;3.83;;;;;;;18.72;50.74;97877.56;4455592;32;20146;-84
2023/04/17 09:36:40;;;;;;;8.27;3.17;;;;;;;18.18;53.55;97871.25;4455469;32;20459;-83
2023/04/17 09:39:22;;;;;;;8.68;3.45;;;;;;;18.30;51.27;97871.25;4455558;32;20391;-84
2023/04/17 09:42:05;;;;;;;7.60;3.20;;;;;;;18.72;52.85;97874.97;4455684;32;20466;-84
2023/04/17 09:44:35;;;;;;;6.95;2.70;;;;;;;18.55;50.75;97880.63;4455205;32;20107;-84
2023/04/17 09:47:03;;;;;;;7.22;2.90;;;;;;;17.90;50.82;97875.09;4456082;32;20101;-84
2023/04/17 09:49:39;;;;;;;8.88;3.40;;;;;;;17.92;51.95;97875.00;4455491;32;20084;-84
2023/04/17 09:52:06;;;;;;;8.23;2.90;;;;;;;18.41;52.33;97881.72;4455360;32;20141;-83
2023/04/17 09:54:36;;;;;;;7.72;3.20;;;;;;;18.21;52.46;97875.41;4455437;32;20073;-84
2023/04/17 09:57:08;;;;;;;8.43;3.45;;;;;;;18.53;54.49;97883.38;4454717;32;20109;-84
2023/04/17 09:59:46;;;;;;;8.77;3.62;;;;;;;18.98;50.34;97873.72;4455451;32;20089;-84
2023/04/17 10:02:17;;;;;;;9.70;3.45;;;;;;;19.36;51.20;97875.88;4455926;32;20099;-83
2023/04/17 10:04:45;;;;;;;8.77;3.25;;;;;;;19.22;50.37;97873.53;4455397;32;20427;-83
2023/04/17 10:07:13;;;;;;;8.18;3.20;;;;;;;18.47;50.14;97868.16;4455486;32;20101;-83
2023/04/17 10:09:40;;;;;;;9.80;3.70;;;;;;;19.31;50.98;97864.12;4455456;32;20146;-84
2023/04/17 10:12:13;;;;;;;8.77;3.60;;;;;;;19.88;48.65;97876.88;4453081;32;20456;-83
2023/04/17 10:14:45;;;;;;;8.93;3.75;;;;;;;19.01;51.32;97868.25;4455493;32;20099;-82
2023/04/17 10:17:35;;;;;;;7.25;3.53;;;;;;;18.95;51.41;97867.91;4455386;32;20096;-83
2023/04/17 10:20:14;;;;;;;8.32;3.70;;;;;;;19.52;51.21;97870.22;4455100;32;20125;-83
2023/04/17 10:22:42;;;;;;;7.97;3.20;;;;;;;19.77;49.49;97871.66;4455287;32;20093;-83
2023/04/17 10:25:11;;;;;;;7.40;3.12;;;;;;;19.56;50.10;97869.03;4455268;32;20076;-83
2023/04/17 10:27:41;;;;;;;7.60;3.47;;;;;;;19.94;47.14;97872.91;4456910;32;20767;-84
2023/04/17 10:30:12;;;;;;;9.40;3.35;;;;;;;19.77;48.42;97860.38;4456936;32;20106;-84
2023/04/17 10:32:42;;;;;;;7.53;3.50;;;;;;;20.86;45.74;97865.06;4454724;32;20154;-83
2023/04/17 10:35:14;;;;;;;9.43;3.67;;;;;;;20.16;48.03;97853.59;4455113;32;20153;-84
2023/04/17 10:37:50;;;;;;;7.80;3.50;;;;;;;18.91;52.71;97861.25;4454953;32;20158;-82
2023/04/17 10:40:25;;;;;;;4.12;2.00;;;;;;;18.48;54.76;97856.75;4455277;32;20112;-83
2023/04/17 10:43:11;;;;;;;10.30;3.83;;;;;;;18.72;51.09;97852.28;4456341;32;20104;-84
2023/04/17 10:45:53;;;;;;;10.80;4.22;;;;;;;18.41;51.90;97853.81;4455010;32;20123;-84
2023/04/17 10:48:25;;;;;;;7.78;3.72;;;;;;;19.45;51.98;97855.12;4454514;32;20120;-84
2023/04/17 10:50:56;;;;;;;9.27;3.40;;;;;;;20.05;50.68;97848.44;4454981;32;20164;-85
2023/04/17 10:53:36;;;;;;;9.48;3.47;;;;;;;18.13;52.55;97852.47;4455392;32;20435;-83
2023/04/17 10:56:04;;;;;;;9.48;3.47;;;;;;;18.46;54.47;97858.66;4454775;32;20411;-84
2023/04/17 10:58:31;;;;;;;8.70;4.07;;;;;;;19.05;49.65;97856.59;4454616;32;20108;-83
2023/04/17 11:01:02;;;;;;;9.40;4.10;;;;;;;18.59;54.72;97851.53;4454500;32;20150;-84
2023/04/17 11:03:30;;;;;;;9.05;3.92;;;;;;;18.70;53.37;97848.09;4454647;32;20123;-83
2023/04/17 11:05:58;;;;;;;9.07;3.75;;;;;;;18.96;52.81;97846.88;4453604;32;20410;-84
2023/04/17 11:08:25;;;;;;;8.43;3.78;;;;;;;18.71;52.10;97852.37;4454186;32;20097;-84
2023/04/17 11:10:53;;;;;;;9.27;4.28;;;;;;;18.48;55.40;97848.91;4454829;32;20085;-84
2023/04/17 11:13:20;;;;;;;10.23;4.50;;;;;;;18.27;55.17;97854.03;4454223;32;20081;-84
2023/04/17 11:15:49;;;;;;;9.68;4.22;;;;;;;19.74;52.32;97852.78;4454126;32;20085;-85
2023/04/17 11:18:17;;;;;;;8.77;3.92;;;;;;;19.57;51.39;97838.50;4454418;32;20157;-85
2023/04/17 11:20:45;;;;;;;10.45;4.05;;;;;;;19.85;50.81;97829.97;4454539;32;20108;-85
2023/04/17 11:23:12;;;;;;;8.98;3.58;;;;;;;19.22;51.92;97846.56;4455241;32;20134;-84
2023/04/17 11:25:40;;;;;;;8.57;3.62;;;;;;;19.18;53.46;97845.97;4456745;32;20073;-84
2023/04/17 11:28:07;;;;;;;9.98;4.75;;;;;;;19.39;51.83;97851.25;4456550;32;20170;-84
2023/04/17 11:30:36;;;;;;;8.65;3.78;;;;;;;19.50;49.81;97843.34;4456291;32;20514;-85
2023/04/17 11:33:04;;;;;;;10.57;3.75;;;;;;;19.10;53.08;97831.84;4457209;32;20096;-85